AirNav   Textron
 
 769 users online  

KATA Hall-Miller Municipal Airport
Atlanta, Texas, USA

GOING TO ATLANTA?


FAA INFORMATION EFFECTIVE 09 NOVEMBER 2017

Location

FAA Identifier: ATA
Lat/Long: 33-06-09.1000N / 094-11-42.1000W
33-06.151667N / 094-11.701667W
33.1025278 / -94.1950278
(estimated)
Elevation: 280.3 ft. / 85.4 m (surveyed)
Variation: 04E (2000)
From city: 2 miles SW of ATLANTA, TX
Time zone: UTC -6 (UTC -5 during Daylight Saving Time)
Zip code: 75551

Airport Operations

Airport use: Open to the public
Activation date: 11/1946
Control tower: no
ARTCC: FORT WORTH CENTER
FSS: FORT WORTH FLIGHT SERVICE STATION
NOTAMs facility: FTW (NOTAM-D service available)
Attendance: IREG
Wind indicator: lighted
Segmented circle: yes
Lights: SS-SR
Beacon: white-green (lighted land airport)
Operates sunset to sunrise.

Airport Communications

CTAF: 122.9
  • APCH/DEP SERVICE PROVIDED BY FORT WORTH ARTCC ON FREQS 123.925/269.475 (TEXARKANA RCAG).

Nearby radio navigation aids

VOR radial/distance  VOR name  Freq  Var
TXKr187/25.4TEXARKANA VORTAC116.3007E
EICr309/27.8BELCHER VORTAC117.4007E

 
NDB name  Hdg/Dist  Freq  Var  ID
ATLANTAat field34704EATA .- - .-

Airport Services

Fuel available: 100LL
FUEL AVBL 24 HRS SELF-SERVE.
Parking: tiedowns
Bottled oxygen: NONE
Bulk oxygen: NONE

Runway Information

Runway 5/23

Dimensions: 3800 x 60 ft. / 1158 x 18 m
Surface: asphalt, in good condition
Weight bearing capacity: 
Single wheel: 23.0
Runway edge lights: medium intensity
RUNWAY 5  RUNWAY 23
Latitude: 33-05.974165N33-06.358928N
Longitude: 094-11.980172W094-11.392522W
Elevation: 280.3 ft.268.2 ft.
Gradient: 0.1%0.3% UP
Traffic pattern: leftleft
Runway heading: 048 magnetic, 052 true228 magnetic, 232 true
Markings: nonprecision, in fair conditionnonprecision, in fair condition
Visual slope indicator: 2-light PAPI on left (4.00 degrees glide path)2-light PAPI on left (4.00 degrees glide path)
Runway end identifier lights: yesyes
Touchdown point: yes, no lightsyes, no lights
Obstructions: 26 ft. trees, 413 ft. from runway, 158 ft. right of centerline, 8:1 slope to clear42 ft. trees, 200 ft. from runway, 186 ft. left of centerline
+40 FT TREES 0-300 FT FM THLD 150 FT L.

Runway 15/33

Dimensions: 2264 x 75 ft. / 690 x 23 m
Surface: turf, in good condition
Runway edge markings: RY MKD WITH 1 FT YELLOW PLASTIC PIPES.
Gradient: NW.
RUNWAY 15  RUNWAY 33
Latitude: 33-06.299907N33-05.949653N
Longitude: 094-11.805742W094-11.652232W
Elevation: 273.2 ft.261.4 ft.
Gradient: 0.5%0.5% UP
Traffic pattern: leftleft
Runway heading: 156 magnetic, 160 true336 magnetic, 340 true
Touchdown point: yes, no lightsyes, no lights
Obstructions: 60 ft. trees, 180 ft. from runway, 35 ft. left of centerline, 3:1 slope to clear55 ft. trees, 110 ft. left of centerline

Airport Ownership and Management from official FAA records

Ownership: Publicly-owned
Owner: CITY OF ATLANTA
PO BOX 669
ATLANTA, TX 75551
Phone 903-796-7153
Manager: DAVID COCKRELL
PO BOX 669
ATLANTA, TX 75551
Phone 903-796-2192
CITY MANAGER, CITY OF ATLANTA, TEXAS

Airport Operational Statistics

Aircraft based on the field: 40
Single engine airplanes: 38
Multi engine airplanes: 1
Ultralights: 1
    
Aircraft operations: avg 55/day *
75% local general aviation
25% transient general aviation
* for 12-month period ending 09 June 2016

Additional Remarks

DEER ON ARPT.
24 FT MARKED POWERLINE 500 FT FROM END OF RY 23.
RY 05 TERRAIN SLOPES +20 FT 670 FT FM THLD.

Instrument Procedures

NOTE: All procedures below are presented as PDF files. If you need a reader for these files, you should download the free Adobe Reader.

NOT FOR NAVIGATION. Please procure official charts for flight.
FAA instrument procedures published for use between 9 November 2017 at 0901Z and 7 December 2017 at 0900Z.

 
IAPs - Instrument Approach Procedures
RNAV (GPS) RWY 05   download (208KB)
NDB RWY 05   download (175KB)
NOTE: Special Take-Off Minimums/Departure Procedures apply   download (113KB)

Other nearby airports with instrument procedures:

3F4 - Vivian Airport (17 nm SE)
KTXK - Texarkana Regional Airport-Webb Field (23 nm NE)
KASL - Harrison County Airport (35 nm S)
KOSA - Mount Pleasant Regional Airport (39 nm W)
KSPH - Springhill Airport (40 nm E)
 
Loc | Ops | Rwys | IFR | FBO | Links
Com | Nav | Svcs | Stats | Notes


 
Area around KATA (Hall-Miller Municipal Airport)
 
Road maps at: MapQuest Bing Google
 
Aerial photo
WARNING: Photo may not be current or correct
Aerial photo of KATA (Hall-Miller Municipal Airport)
Photo taken 03-Sep-2006

Do you have a better or more recent aerial photo of Hall-Miller Municipal Airport that you would like to share? If so, please send us your photo.

 
Sectional chart

 
Airport distance calculator
Flying to Hall-Miller Municipal Airport? Find the distance to fly.

From to KATA

Sunrise and sunset
Times for 18-Nov-2017
 Local
(UTC-6)
 Zulu
(UTC)
Morning civil twilight06:2512:25
Sunrise06:5112:51
Sunset17:1323:13
Evening civil twilight17:3923:39

Current date and time
Zulu (UTC)  19-Nov-2017 02:07:34
Local (UTC-6)  18-Nov-2017 20:07:34
 
METAR
KTXK 
23nm NE 
190153Z 33005KT 10SM CLR 09/03 A3016 RMK AO2 SLP211 T00940028
KASL 
35nm S 
190155Z AUTO 35008G18KT 10SM CLR 12/03 A3018 RMK AO1 T01150025
KOSA 
39nm W 
190155Z AUTO 33007KT 10SM CLR 10/03 A3021 RMK AO1 T01040030
KDTN 
40nm SE 
190153Z 34015KT 10SM CLR 12/03 A3015 RMK AO2 PK WND 35027/0056 SLP207 T01220033 $
KSHV 
43nm SE 
190156Z 34013G23KT 10SM FEW050 FEW200 BKN280 12/04 A3013 RMK AO2 PK WND 01029/0119 SLP202 T01220044
KBAD 
45nm SE 
190156Z AUTO 36016G23KT 10SM FEW040 12/02 A3013 RMK AO2 PK WND 35030/30 SLP205 T01200024
KJXI 
45nm SW 
190155Z AUTO 33006KT 10SM OVC003 11/03 A3019 RMK AO2 T01070030
TAF
KTXK 
23nm NE 
181731Z 1818/1918 29020G31KT P6SM SCT045 BKN280 FM182000 31021G32KT P6SM SCT025 BKN035 FM190000 33014G20KT P6SM FEW035 BKN280 FM190200 33009KT P6SM SCT280 FM190400 33006KT P6SM SKC FM191500 35008KT P6SM SKC
NOTAMs
Click for the latest NOTAMs
NOTAMs are issued by the DoD/FAA and will open in a separate window not controlled by AirNav.

 

 
 

FBO, Fuel Providers, and Aircraft Ground Support

  
 Business Name 
 
 Contact 
 
 Services / Description 
 
Fuel Prices
 
Comments
  
Flyin JN LLC 903-932-1767
[email]
Aviation fuel, Aircraft parking (ramp or tiedown), Hangars, Passenger terminal and lounge, ...

More info about Flyin JN LLC
Avfuel
100LL
SS $3.99 
GUARANTEED
 
   2 read write
SS=Self service
Update Fuel Prices
 

Would you like to see your business listed on this page?

 If your business provides an interesting product or service to pilots, flight crews, aircraft, or users of the Hall-Miller Municipal Airport, you should consider listing it here.  To start the listing process, click on the button below
 
Add a business
 

Other Pages about Hall-Miller Municipal Airport

Update a link
 
Copyright © AirNav, LLC. All rights reserved. Privacy Policy  Contact